sensor_id;sensor_type;location;lat;lon;timestamp;P1;durP1;ratioP1;P2;durP2;ratioP2
13801;SDS011;6972;51.518;6.918;2023-02-27T00:00:34;3.77;;;1.80;;
13801;SDS011;6972;51.518;6.918;2023-02-27T00:03:00;3.47;;;2.00;;
13801;SDS011;6972;51.518;6.918;2023-02-27T00:05:26;4.10;;;2.20;;
13801;SDS011;6972;51.518;6.918;2023-02-27T00:07:51;5.83;;;2.17;;
13801;SDS011;6972;51.518;6.918;2023-02-27T00:10:17;4.27;;;1.70;;
13801;SDS011;6972;51.518;6.918;2023-02-27T00:12:44;6.37;;;2.80;;
13801;SDS011;6972;51.518;6.918;2023-02-27T00:15:12;7.67;;;1.93;;
13801;SDS011;6972;51.518;6.918;2023-02-27T00:17:40;5.40;;;2.10;;
13801;SDS011;6972;51.518;6.918;2023-02-27T00:20:07;2.57;;;1.97;;
13801;SDS011;6972;51.518;6.918;2023-02-27T00:22:38;4.17;;;2.10;;
13801;SDS011;6972;51.518;6.918;2023-02-27T00:25:05;6.30;;;2.07;;
13801;SDS011;6972;51.518;6.918;2023-02-27T00:27:31;5.83;;;1.97;;
13801;SDS011;6972;51.518;6.918;2023-02-27T00:29:58;6.13;;;2.20;;
13801;SDS011;6972;51.518;6.918;2023-02-27T00:32:24;6.57;;;2.30;;
13801;SDS011;6972;51.518;6.918;2023-02-27T00:34:50;4.23;;;1.90;;
13801;SDS011;6972;51.518;6.918;2023-02-27T00:37:16;5.43;;;2.37;;
13801;SDS011;6972;51.518;6.918;2023-02-27T00:39:42;8.07;;;2.50;;
13801;SDS011;6972;51.518;6.918;2023-02-27T00:42:08;4.93;;;2.57;;
13801;SDS011;6972;51.518;6.918;2023-02-27T00:44:34;6.50;;;2.30;;
13801;SDS011;6972;51.518;6.918;2023-02-27T00:47:00;4.90;;;2.47;;
13801;SDS011;6972;51.518;6.918;2023-02-27T00:49:26;5.87;;;2.20;;
13801;SDS011;6972;51.518;6.918;2023-02-27T00:51:52;6.17;;;2.30;;
13801;SDS011;6972;51.518;6.918;2023-02-27T00:54:18;5.30;;;2.03;;
13801;SDS011;6972;51.518;6.918;2023-02-27T00:56:44;4.23;;;2.07;;
13801;SDS011;6972;51.518;6.918;2023-02-27T00:59:10;6.23;;;2.27;;
13801;SDS011;6972;51.518;6.918;2023-02-27T01:01:36;10.77;;;2.30;;
13801;SDS011;6972;51.518;6.918;2023-02-27T01:06:37;7.83;;;2.67;;
13801;SDS011;6972;51.518;6.918;2023-02-27T01:09:03;9.73;;;2.70;;
13801;SDS011;6972;51.518;6.918;2023-02-27T01:11:29;8.87;;;2.33;;
13801;SDS011;6972;51.518;6.918;2023-02-27T01:13:55;5.43;;;2.57;;
13801;SDS011;6972;51.518;6.918;2023-02-27T01:16:22;6.33;;;2.43;;
13801;SDS011;6972;51.518;6.918;2023-02-27T01:18:48;5.43;;;2.67;;
13801;SDS011;6972;51.518;6.918;2023-02-27T01:21:13;4.10;;;2.10;;
13801;SDS011;6972;51.518;6.918;2023-02-27T01:23:40;3.57;;;2.23;;
13801;SDS011;6972;51.518;6.918;2023-02-27T01:26:06;4.20;;;2.40;;
13801;SDS011;6972;51.518;6.918;2023-02-27T01:28:32;6.13;;;2.50;;
13801;SDS011;6972;51.518;6.918;2023-02-27T01:41:13;10.13;;;2.53;;
13801;SDS011;6972;51.518;6.918;2023-02-27T01:43:54;4.50;;;2.30;;
13801;SDS011;6972;51.518;6.918;2023-02-27T01:46:24;10.37;;;2.60;;
13801;SDS011;6972;51.518;6.918;2023-02-27T01:51:17;5.90;;;2.93;;
13801;SDS011;6972;51.518;6.918;2023-02-27T01:53:46;7.83;;;3.23;;
13801;SDS011;6972;51.518;6.918;2023-02-27T01:56:14;5.23;;;2.97;;
13801;SDS011;6972;51.518;6.918;2023-02-27T01:58:44;6.00;;;3.03;;
13801;SDS011;6972;51.518;6.918;2023-02-27T02:01:11;6.17;;;2.83;;
13801;SDS011;6972;51.518;6.918;2023-02-27T02:06:04;8.83;;;2.50;;
13801;SDS011;6972;51.518;6.918;2023-02-27T02:08:33;8.47;;;3.00;;
13801;SDS011;6972;51.518;6.918;2023-02-27T02:11:02;4.50;;;2.50;;
13801;SDS011;6972;51.518;6.918;2023-02-27T02:13:28;4.60;;;2.80;;
13801;SDS011;6972;51.518;6.918;2023-02-27T02:18:45;7.80;;;2.60;;
13801;SDS011;6972;51.518;6.918;2023-02-27T02:29:40;6.90;;;2.50;;
13801;SDS011;6972;51.518;6.918;2023-02-27T02:32:41;4.70;;;2.47;;
13801;SDS011;6972;51.518;6.918;2023-02-27T02:38:29;4.53;;;2.37;;
13801;SDS011;6972;51.518;6.918;2023-02-27T02:41:21;5.20;;;2.43;;
13801;SDS011;6972;51.518;6.918;2023-02-27T02:44:16;5.50;;;2.50;;
13801;SDS011;6972;51.518;6.918;2023-02-27T02:47:22;4.30;;;2.40;;
13801;SDS011;6972;51.518;6.918;2023-02-27T02:55:25;8.00;;;2.50;;
13801;SDS011;6972;51.518;6.918;2023-02-27T02:58:20;5.73;;;2.73;;
13801;SDS011;6972;51.518;6.918;2023-02-27T03:01:01;4.47;;;2.37;;
13801;SDS011;6972;51.518;6.918;2023-02-27T03:03:50;6.27;;;2.67;;
13801;SDS011;6972;51.518;6.918;2023-02-27T03:06:42;7.03;;;2.90;;
13801;SDS011;6972;51.518;6.918;2023-02-27T03:11:50;4.50;;;2.60;;
13801;SDS011;6972;51.518;6.918;2023-02-27T03:14:27;6.13;;;2.87;;
13801;SDS011;6972;51.518;6.918;2023-02-27T03:16:58;6.80;;;2.50;;
13801;SDS011;6972;51.518;6.918;2023-02-27T03:19:42;7.37;;;2.33;;
13801;SDS011;6972;51.518;6.918;2023-02-27T03:22:14;5.87;;;2.43;;
13801;SDS011;6972;51.518;6.918;2023-02-27T03:32:31;6.23;;;2.60;;
13801;SDS011;6972;51.518;6.918;2023-02-27T03:35:03;5.93;;;2.63;;
13801;SDS011;6972;51.518;6.918;2023-02-27T03:42:46;7.23;;;3.23;;
13801;SDS011;6972;51.518;6.918;2023-02-27T03:47:52;9.20;;;3.83;;
13801;SDS011;6972;51.518;6.918;2023-02-27T03:52:54;9.37;;;3.97;;
13801;SDS011;6972;51.518;6.918;2023-02-27T04:00:22;5.70;;;2.50;;
13801;SDS011;6972;51.518;6.918;2023-02-27T04:02:50;9.20;;;2.80;;
13801;SDS011;6972;51.518;6.918;2023-02-27T04:42:30;5.27;;;3.03;;
13801;SDS011;6972;51.518;6.918;2023-02-27T04:45:22;7.30;;;3.13;;
13801;SDS011;6972;51.518;6.918;2023-02-27T05:00:17;5.13;;;3.00;;
13801;SDS011;6972;51.518;6.918;2023-02-27T05:02:53;8.80;;;3.40;;
13801;SDS011;6972;51.518;6.918;2023-02-27T05:05:48;5.70;;;3.07;;
13801;SDS011;6972;51.518;6.918;2023-02-27T05:08:41;12.23;;;3.60;;
13801;SDS011;6972;51.518;6.918;2023-02-27T05:19:59;5.40;;;3.33;;
13801;SDS011;6972;51.518;6.918;2023-02-27T05:26:19;10.63;;;3.97;;
13801;SDS011;6972;51.518;6.918;2023-02-27T05:31:48;8.97;;;3.80;;
13801;SDS011;6972;51.518;6.918;2023-02-27T05:34:35;9.60;;;4.40;;
13801;SDS011;6972;51.518;6.918;2023-02-27T05:40:09;12.13;;;3.80;;
13801;SDS011;6972;51.518;6.918;2023-02-27T05:42:38;7.50;;;3.80;;
13801;SDS011;6972;51.518;6.918;2023-02-27T05:45:09;7.37;;;3.70;;
13801;SDS011;6972;51.518;6.918;2023-02-27T05:47:44;7.83;;;3.10;;
13801;SDS011;6972;51.518;6.918;2023-02-27T05:50:20;8.33;;;3.67;;
13801;SDS011;6972;51.518;6.918;2023-02-27T05:52:50;7.53;;;3.10;;
13801;SDS011;6972;51.518;6.918;2023-02-27T05:55:26;5.33;;;3.10;;
13801;SDS011;6972;51.518;6.918;2023-02-27T06:03:02;5.43;;;3.33;;
13801;SDS011;6972;51.518;6.918;2023-02-27T06:05:28;8.90;;;3.67;;
13801;SDS011;6972;51.518;6.918;2023-02-27T06:07:55;8.90;;;3.70;;
13801;SDS011;6972;51.518;6.918;2023-02-27T06:10:21;4.97;;;3.00;;
13801;SDS011;6972;51.518;6.918;2023-02-27T06:12:47;7.00;;;3.53;;
13801;SDS011;6972;51.518;6.918;2023-02-27T06:15:13;9.40;;;3.67;;
13801;SDS011;6972;51.518;6.918;2023-02-27T06:17:39;10.87;;;4.47;;
13801;SDS011;6972;51.518;6.918;2023-02-27T06:20:06;8.63;;;3.83;;
13801;SDS011;6972;51.518;6.918;2023-02-27T06:22:32;9.97;;;4.17;;
13801;SDS011;6972;51.518;6.918;2023-02-27T06:24:59;11.83;;;3.80;;
13801;SDS011;6972;51.518;6.918;2023-02-27T06:27:25;11.87;;;4.37;;
13801;SDS011;6972;51.518;6.918;2023-02-27T06:29:51;10.10;;;4.30;;
13801;SDS011;6972;51.518;6.918;2023-02-27T06:32:17;7.77;;;4.00;;
13801;SDS011;6972;51.518;6.918;2023-02-27T06:34:43;10.77;;;4.17;;
13801;SDS011;6972;51.518;6.918;2023-02-27T06:37:09;8.67;;;3.60;;
13801;SDS011;6972;51.518;6.918;2023-02-27T06:39:35;7.07;;;3.87;;
13801;SDS011;6972;51.518;6.918;2023-02-27T06:42:02;8.73;;;4.10;;
13801;SDS011;6972;51.518;6.918;2023-02-27T06:44:28;7.73;;;4.23;;
13801;SDS011;6972;51.518;6.918;2023-02-27T06:46:54;10.87;;;4.13;;
13801;SDS011;6972;51.518;6.918;2023-02-27T06:49:20;8.57;;;3.80;;
13801;SDS011;6972;51.518;6.918;2023-02-27T06:51:46;9.53;;;3.57;;
13801;SDS011;6972;51.518;6.918;2023-02-27T06:54:12;8.83;;;4.00;;
13801;SDS011;6972;51.518;6.918;2023-02-27T06:56:38;10.03;;;4.33;;
13801;SDS011;6972;51.518;6.918;2023-02-27T06:59:04;9.53;;;4.47;;
13801;SDS011;6972;51.518;6.918;2023-02-27T07:01:30;7.83;;;3.90;;
13801;SDS011;6972;51.518;6.918;2023-02-27T07:03:56;7.27;;;3.90;;
13801;SDS011;6972;51.518;6.918;2023-02-27T07:06:22;6.57;;;3.87;;
13801;SDS011;6972;51.518;6.918;2023-02-27T07:08:48;9.77;;;4.40;;
13801;SDS011;6972;51.518;6.918;2023-02-27T07:11:13;8.33;;;4.17;;
13801;SDS011;6972;51.518;6.918;2023-02-27T07:13:39;6.80;;;4.13;;
13801;SDS011;6972;51.518;6.918;2023-02-27T07:16:05;8.47;;;4.10;;
13801;SDS011;6972;51.518;6.918;2023-02-27T07:18:31;10.20;;;4.37;;
13801;SDS011;6972;51.518;6.918;2023-02-27T07:20:57;8.20;;;3.97;;
13801;SDS011;6972;51.518;6.918;2023-02-27T07:23:23;13.93;;;4.50;;
13801;SDS011;6972;51.518;6.918;2023-02-27T07:25:49;10.57;;;3.90;;
13801;SDS011;6972;51.518;6.918;2023-02-27T07:28:15;9.13;;;4.10;;
13801;SDS011;6972;51.518;6.918;2023-02-27T07:30:42;8.43;;;4.10;;
13801;SDS011;6972;51.518;6.918;2023-02-27T07:33:08;6.57;;;3.90;;
13801;SDS011;6972;51.518;6.918;2023-02-27T07:35:35;7.73;;;3.87;;
13801;SDS011;6972;51.518;6.918;2023-02-27T07:38:01;8.50;;;4.00;;
13801;SDS011;6972;51.518;6.918;2023-02-27T07:40:27;10.97;;;3.67;;
13801;SDS011;6972;51.518;6.918;2023-02-27T07:42:53;9.37;;;3.97;;
13801;SDS011;6972;51.518;6.918;2023-02-27T07:45:19;8.27;;;3.70;;
13801;SDS011;6972;51.518;6.918;2023-02-27T07:47:46;9.20;;;4.07;;
13801;SDS011;6972;51.518;6.918;2023-02-27T07:50:12;5.57;;;3.57;;
13801;SDS011;6972;51.518;6.918;2023-02-27T07:52:39;8.10;;;3.83;;
13801;SDS011;6972;51.518;6.918;2023-02-27T07:55:05;12.17;;;4.00;;
13801;SDS011;6972;51.518;6.918;2023-02-27T07:57:32;6.30;;;3.90;;
13801;SDS011;6972;51.518;6.918;2023-02-27T07:59:58;7.67;;;3.60;;
13801;SDS011;6972;51.518;6.918;2023-02-27T08:02:24;6.50;;;3.97;;
13801;SDS011;6972;51.518;6.918;2023-02-27T08:04:50;8.03;;;3.97;;
13801;SDS011;6972;51.518;6.918;2023-02-27T08:07:16;5.67;;;3.63;;
13801;SDS011;6972;51.518;6.918;2023-02-27T08:09:45;9.13;;;3.37;;
13801;SDS011;6972;51.518;6.918;2023-02-27T08:12:11;8.80;;;3.53;;
13801;SDS011;6972;51.518;6.918;2023-02-27T08:14:37;7.67;;;3.90;;
13801;SDS011;6972;51.518;6.918;2023-02-27T08:17:03;8.87;;;3.67;;
13801;SDS011;6972;51.518;6.918;2023-02-27T08:19:29;10.43;;;3.80;;
13801;SDS011;6972;51.518;6.918;2023-02-27T08:21:55;8.40;;;3.53;;
13801;SDS011;6972;51.518;6.918;2023-02-27T08:24:21;7.27;;;3.17;;
13801;SDS011;6972;51.518;6.918;2023-02-27T08:26:47;6.20;;;3.60;;
13801;SDS011;6972;51.518;6.918;2023-02-27T08:34:18;13.90;;;3.83;;
13801;SDS011;6972;51.518;6.918;2023-02-27T08:41:54;7.97;;;3.60;;
13801;SDS011;6972;51.518;6.918;2023-02-27T08:44:20;7.67;;;3.13;;
13801;SDS011;6972;51.518;6.918;2023-02-27T08:46:46;6.00;;;3.70;;
13801;SDS011;6972;51.518;6.918;2023-02-27T08:49:12;8.07;;;3.23;;
13801;SDS011;6972;51.518;6.918;2023-02-27T08:51:38;10.27;;;3.53;;
13801;SDS011;6972;51.518;6.918;2023-02-27T08:56:36;8.00;;;2.70;;
13801;SDS011;6972;51.518;6.918;2023-02-27T08:59:02;6.37;;;2.80;;
13801;SDS011;6972;51.518;6.918;2023-02-27T09:01:28;9.27;;;3.10;;
13801;SDS011;6972;51.518;6.918;2023-02-27T09:03:58;3.77;;;2.57;;
13801;SDS011;6972;51.518;6.918;2023-02-27T09:06:24;13.43;;;3.63;;
13801;SDS011;6972;51.518;6.918;2023-02-27T09:08:50;8.13;;;2.90;;
13801;SDS011;6972;51.518;6.918;2023-02-27T09:11:16;7.30;;;2.90;;
13801;SDS011;6972;51.518;6.918;2023-02-27T09:13:43;8.27;;;3.13;;
13801;SDS011;6972;51.518;6.918;2023-02-27T09:26:25;7.55;;;2.10;;
13801;SDS011;6972;51.518;6.918;2023-02-27T09:28:50;7.17;;;2.67;;
13801;SDS011;6972;51.518;6.918;2023-02-27T09:33:59;3.33;;;1.93;;
13801;SDS011;6972;51.518;6.918;2023-02-27T09:36:26;5.43;;;2.00;;
13801;SDS011;6972;51.518;6.918;2023-02-27T09:38:52;5.30;;;2.43;;
13801;SDS011;6972;51.518;6.918;2023-02-27T09:47:20;6.97;;;2.27;;
13801;SDS011;6972;51.518;6.918;2023-02-27T09:50:00;5.47;;;2.00;;
13801;SDS011;6972;51.518;6.918;2023-02-27T09:57:43;5.97;;;2.00;;
13801;SDS011;6972;51.518;6.918;2023-02-27T10:19:52;4.33;;;1.73;;
13801;SDS011;6972;51.518;6.918;2023-02-27T10:22:20;4.70;;;1.83;;
13801;SDS011;6972;51.518;6.918;2023-02-27T10:25:08;8.03;;;2.10;;
13801;SDS011;6972;51.518;6.918;2023-02-27T10:27:45;10.20;;;1.83;;
13801;SDS011;6972;51.518;6.918;2023-02-27T10:32:44;3.00;;;1.60;;
13801;SDS011;6972;51.518;6.918;2023-02-27T10:38:05;3.30;;;1.90;;
13801;SDS011;6972;51.518;6.918;2023-02-27T10:41:03;4.60;;;1.67;;
13801;SDS011;6972;51.518;6.918;2023-02-27T10:43:34;6.03;;;1.90;;
13801;SDS011;6972;51.518;6.918;2023-02-27T10:46:06;5.83;;;1.83;;
13801;SDS011;6972;51.518;6.918;2023-02-27T10:48:51;2.57;;;1.63;;
13801;SDS011;6972;51.518;6.918;2023-02-27T10:56:49;5.10;;;2.30;;
13801;SDS011;6972;51.518;6.918;2023-02-27T11:01:58;7.37;;;1.90;;
13801;SDS011;6972;51.518;6.918;2023-02-27T11:07:05;7.33;;;1.83;;
13801;SDS011;6972;51.518;6.918;2023-02-27T11:09:34;4.63;;;1.73;;
13801;SDS011;6972;51.518;6.918;2023-02-27T11:14:56;6.67;;;2.13;;
13801;SDS011;6972;51.518;6.918;2023-02-27T11:17:30;7.73;;;2.10;;
13801;SDS011;6972;51.518;6.918;2023-02-27T11:20:01;3.93;;;1.70;;
13801;SDS011;6972;51.518;6.918;2023-02-27T11:32:44;3.90;;;1.90;;
13801;SDS011;6972;51.518;6.918;2023-02-27T11:35:55;5.77;;;2.47;;
13801;SDS011;6972;51.518;6.918;2023-02-27T11:38:06;3.30;;;1.83;;
13801;SDS011;6972;51.518;6.918;2023-02-27T11:40:48;4.77;;;1.50;;
13801;SDS011;6972;51.518;6.918;2023-02-27T11:45:53;7.53;;;1.97;;
13801;SDS011;6972;51.518;6.918;2023-02-27T11:48:47;5.77;;;1.87;;
13801;SDS011;6972;51.518;6.918;2023-02-27T12:01:49;4.10;;;1.70;;
13801;SDS011;6972;51.518;6.918;2023-02-27T12:10:20;5.80;;;1.70;;
13801;SDS011;6972;51.518;6.918;2023-02-27T12:12:54;5.33;;;1.73;;
13801;SDS011;6972;51.518;6.918;2023-02-27T12:15:26;6.10;;;1.80;;
13801;SDS011;6972;51.518;6.918;2023-02-27T12:18:10;3.30;;;1.67;;
13801;SDS011;6972;51.518;6.918;2023-02-27T12:23:18;5.47;;;1.90;;
13801;SDS011;6972;51.518;6.918;2023-02-27T12:33:37;3.37;;;1.60;;
13801;SDS011;6972;51.518;6.918;2023-02-27T12:36:33;3.83;;;1.90;;
13801;SDS011;6972;51.518;6.918;2023-02-27T12:38:59;6.00;;;1.90;;
13801;SDS011;6972;51.518;6.918;2023-02-27T13:07:24;4.83;;;1.93;;
13801;SDS011;6972;51.518;6.918;2023-02-27T13:09:57;2.60;;;1.60;;
13801;SDS011;6972;51.518;6.918;2023-02-27T13:15:21;4.33;;;1.80;;
13801;SDS011;6972;51.518;6.918;2023-02-27T13:18:07;5.50;;;1.50;;
13801;SDS011;6972;51.518;6.918;2023-02-27T13:20:52;2.67;;;1.60;;
13801;SDS011;6972;51.518;6.918;2023-02-27T13:23:31;4.93;;;2.10;;
13801;SDS011;6972;51.518;6.918;2023-02-27T13:26:13;4.00;;;2.10;;
13801;SDS011;6972;51.518;6.918;2023-02-27T13:29:00;7.47;;;2.10;;
13801;SDS011;6972;51.518;6.918;2023-02-27T13:34:33;4.03;;;1.70;;
13801;SDS011;6972;51.518;6.918;2023-02-27T13:37:04;4.63;;;1.93;;
13801;SDS011;6972;51.518;6.918;2023-02-27T13:42:51;2.83;;;1.63;;
13801;SDS011;6972;51.518;6.918;2023-02-27T13:50:00;2.60;;;1.70;;
13801;SDS011;6972;51.518;6.918;2023-02-27T13:52:30;3.40;;;1.60;;
13801;SDS011;6972;51.518;6.918;2023-02-27T13:55:02;7.27;;;1.93;;
13801;SDS011;6972;51.518;6.918;2023-02-27T13:57:34;6.07;;;2.33;;
13801;SDS011;6972;51.518;6.918;2023-02-27T14:00:03;4.23;;;1.60;;
13801;SDS011;6972;51.518;6.918;2023-02-27T14:05:32;4.97;;;1.50;;
13801;SDS011;6972;51.518;6.918;2023-02-27T14:19:25;3.33;;;1.57;;
13801;SDS011;6972;51.518;6.918;2023-02-27T14:29:38;3.50;;;1.63;;
13801;SDS011;6972;51.518;6.918;2023-02-27T14:32:18;5.63;;;1.80;;
13801;SDS011;6972;51.518;6.918;2023-02-27T14:34:46;3.00;;;1.90;;
13801;SDS011;6972;51.518;6.918;2023-02-27T14:37:14;3.57;;;2.00;;
13801;SDS011;6972;51.518;6.918;2023-02-27T14:39:47;4.27;;;1.90;;
13801;SDS011;6972;51.518;6.918;2023-02-27T14:47:29;5.20;;;2.00;;
13801;SDS011;6972;51.518;6.918;2023-02-27T14:49:55;4.80;;;1.90;;
13801;SDS011;6972;51.518;6.918;2023-02-27T15:00:37;2.63;;;1.80;;
13801;SDS011;6972;51.518;6.918;2023-02-27T15:08:19;3.97;;;2.13;;
13801;SDS011;6972;51.518;6.918;2023-02-27T15:10:50;4.13;;;1.90;;
13801;SDS011;6972;51.518;6.918;2023-02-27T15:13:27;4.60;;;2.00;;
13801;SDS011;6972;51.518;6.918;2023-02-27T15:16:25;4.97;;;2.00;;
13801;SDS011;6972;51.518;6.918;2023-02-27T15:37:58;7.77;;;2.20;;
13801;SDS011;6972;51.518;6.918;2023-02-27T15:42:57;2.37;;;1.70;;
13801;SDS011;6972;51.518;6.918;2023-02-27T15:45:32;4.30;;;2.30;;
13801;SDS011;6972;51.518;6.918;2023-02-27T15:48:00;4.33;;;2.03;;
13801;SDS011;6972;51.518;6.918;2023-02-27T15:50:28;4.33;;;1.93;;
13801;SDS011;6972;51.518;6.918;2023-02-27T16:03:29;7.30;;;2.27;;
13801;SDS011;6972;51.518;6.918;2023-02-27T16:06:20;4.13;;;2.00;;
13801;SDS011;6972;51.518;6.918;2023-02-27T16:11:20;6.03;;;2.20;;
13801;SDS011;6972;51.518;6.918;2023-02-27T16:13:48;4.00;;;2.00;;
13801;SDS011;6972;51.518;6.918;2023-02-27T16:16:25;3.83;;;1.70;;
13801;SDS011;6972;51.518;6.918;2023-02-27T16:21:27;5.00;;;1.97;;
13801;SDS011;6972;51.518;6.918;2023-02-27T16:28:55;5.60;;;1.93;;
13801;SDS011;6972;51.518;6.918;2023-02-27T16:34:01;3.47;;;2.10;;
13801;SDS011;6972;51.518;6.918;2023-02-27T16:36:37;4.13;;;1.83;;
13801;SDS011;6972;51.518;6.918;2023-02-27T16:41:52;6.93;;;1.90;;
13801;SDS011;6972;51.518;6.918;2023-02-27T16:49:27;3.47;;;2.07;;
13801;SDS011;6972;51.518;6.918;2023-02-27T16:56:55;3.70;;;1.93;;
13801;SDS011;6972;51.518;6.918;2023-02-27T17:05:17;3.10;;;1.90;;
13801;SDS011;6972;51.518;6.918;2023-02-27T17:38:45;5.20;;;2.10;;
13801;SDS011;6972;51.518;6.918;2023-02-27T18:09:23;6.23;;;2.60;;
13801;SDS011;6972;51.518;6.918;2023-02-27T18:53:30;7.87;;;3.90;;
13801;SDS011;6972;51.518;6.918;2023-02-27T18:56:01;9.97;;;3.60;;
13801;SDS011;6972;51.518;6.918;2023-02-27T18:58:28;8.13;;;4.00;;
13801;SDS011;6972;51.518;6.918;2023-02-27T19:00:55;10.13;;;4.00;;
13801;SDS011;6972;51.518;6.918;2023-02-27T19:03:21;7.03;;;3.70;;
13801;SDS011;6972;51.518;6.918;2023-02-27T19:05:47;7.33;;;3.73;;
13801;SDS011;6972;51.518;6.918;2023-02-27T19:13:11;8.17;;;3.80;;
13801;SDS011;6972;51.518;6.918;2023-02-27T19:23:25;8.17;;;3.13;;
13801;SDS011;6972;51.518;6.918;2023-02-27T19:28:22;5.60;;;2.80;;
13801;SDS011;6972;51.518;6.918;2023-02-27T19:30:48;5.70;;;3.40;;
13801;SDS011;6972;51.518;6.918;2023-02-27T19:33:14;7.30;;;3.13;;
13801;SDS011;6972;51.518;6.918;2023-02-27T19:35:43;8.33;;;3.37;;
13801;SDS011;6972;51.518;6.918;2023-02-27T19:48:33;7.03;;;3.23;;
13801;SDS011;6972;51.518;6.918;2023-02-27T19:56:57;4.97;;;2.70;;
13801;SDS011;6972;51.518;6.918;2023-02-27T20:04:35;8.57;;;3.00;;
13801;SDS011;6972;51.518;6.918;2023-02-27T20:07:01;6.43;;;3.00;;
13801;SDS011;6972;51.518;6.918;2023-02-27T20:17:52;6.47;;;2.67;;
13801;SDS011;6972;51.518;6.918;2023-02-27T20:20:19;6.70;;;2.80;;
13801;SDS011;6972;51.518;6.918;2023-02-27T20:22:45;3.80;;;2.30;;
13801;SDS011;6972;51.518;6.918;2023-02-27T20:25:12;5.90;;;2.77;;
13801;SDS011;6972;51.518;6.918;2023-02-27T20:32:45;6.93;;;3.10;;
13801;SDS011;6972;51.518;6.918;2023-02-27T20:38:45;6.53;;;2.90;;
13801;SDS011;6972;51.518;6.918;2023-02-27T20:41:12;5.30;;;3.10;;
13801;SDS011;6972;51.518;6.918;2023-02-27T20:43:40;5.93;;;3.17;;
13801;SDS011;6972;51.518;6.918;2023-02-27T20:59:50;4.87;;;3.00;;
13801;SDS011;6972;51.518;6.918;2023-02-27T21:02:16;4.93;;;3.47;;
13801;SDS011;6972;51.518;6.918;2023-02-27T21:04:45;6.27;;;3.40;;
13801;SDS011;6972;51.518;6.918;2023-02-27T21:07:18;5.70;;;3.10;;
13801;SDS011;6972;51.518;6.918;2023-02-27T21:09:48;6.93;;;3.60;;
13801;SDS011;6972;51.518;6.918;2023-02-27T21:12:15;7.73;;;3.47;;
13801;SDS011;6972;51.518;6.918;2023-02-27T21:14:42;4.40;;;2.83;;
13801;SDS011;6972;51.518;6.918;2023-02-27T21:17:11;9.80;;;3.40;;
13801;SDS011;6972;51.518;6.918;2023-02-27T21:19:38;6.37;;;3.30;;
13801;SDS011;6972;51.518;6.918;2023-02-27T21:22:04;6.90;;;3.50;;
13801;SDS011;6972;51.518;6.918;2023-02-27T21:24:31;9.27;;;3.70;;
13801;SDS011;6972;51.518;6.918;2023-02-27T21:50:40;6.60;;;3.93;;
13801;SDS011;6972;51.518;6.918;2023-02-27T21:53:07;10.03;;;4.83;;
13801;SDS011;6972;51.518;6.918;2023-02-27T21:55:33;13.00;;;4.77;;
13801;SDS011;6972;51.518;6.918;2023-02-27T21:58:00;12.30;;;4.90;;
13801;SDS011;6972;51.518;6.918;2023-02-27T22:00:26;9.80;;;4.93;;
13801;SDS011;6972;51.518;6.918;2023-02-27T22:02:53;9.77;;;4.80;;
13801;SDS011;6972;51.518;6.918;2023-02-27T22:05:19;9.00;;;4.60;;
13801;SDS011;6972;51.518;6.918;2023-02-27T22:10:21;10.37;;;4.73;;
13801;SDS011;6972;51.518;6.918;2023-02-27T22:12:47;11.63;;;4.83;;
13801;SDS011;6972;51.518;6.918;2023-02-27T22:15:13;9.10;;;4.53;;
13801;SDS011;6972;51.518;6.918;2023-02-27T22:23:43;9.50;;;4.00;;
13801;SDS011;6972;51.518;6.918;2023-02-27T22:26:11;6.57;;;4.03;;
13801;SDS011;6972;51.518;6.918;2023-02-27T22:28:39;6.23;;;3.70;;
13801;SDS011;6972;51.518;6.918;2023-02-27T22:31:12;8.00;;;3.77;;
13801;SDS011;6972;51.518;6.918;2023-02-27T22:33:40;8.20;;;4.03;;
13801;SDS011;6972;51.518;6.918;2023-02-27T22:38:49;7.60;;;4.30;;
13801;SDS011;6972;51.518;6.918;2023-02-27T22:41:20;6.37;;;4.03;;
13801;SDS011;6972;51.518;6.918;2023-02-27T22:43:47;6.47;;;4.00;;
13801;SDS011;6972;51.518;6.918;2023-02-27T22:46:14;6.00;;;3.80;;
13801;SDS011;6972;51.518;6.918;2023-02-27T22:48:42;10.87;;;4.37;;
13801;SDS011;6972;51.518;6.918;2023-02-27T22:51:12;6.60;;;4.00;;
13801;SDS011;6972;51.518;6.918;2023-02-27T22:53:39;13.57;;;4.10;;
13801;SDS011;6972;51.518;6.918;2023-02-27T22:58:43;5.87;;;3.93;;
13801;SDS011;6972;51.518;6.918;2023-02-27T23:01:13;7.20;;;3.90;;
13801;SDS011;6972;51.518;6.918;2023-02-27T23:03:41;6.77;;;4.03;;
13801;SDS011;6972;51.518;6.918;2023-02-27T23:06:10;7.90;;;4.00;;
13801;SDS011;6972;51.518;6.918;2023-02-27T23:08:37;5.77;;;4.10;;
13801;SDS011;6972;51.518;6.918;2023-02-27T23:11:04;9.50;;;4.70;;
13801;SDS011;6972;51.518;6.918;2023-02-27T23:13:30;7.10;;;3.87;;
